createdAt,value
2023-06-30T00:00:32.181Z,3.10
2023-06-30T00:03:26.726Z,3.60
2023-06-30T00:06:01.268Z,3.60
2023-06-30T00:08:35.536Z,4.00
2023-06-30T00:11:09.748Z,4.10
2023-06-30T00:13:44.088Z,4.70
2023-06-30T00:16:18.364Z,4.50
2023-06-30T00:18:57.036Z,4.00
2023-06-30T00:21:31.396Z,4.50
2023-06-30T00:24:06.347Z,4.50
2023-06-30T00:26:41.319Z,4.20
2023-06-30T00:29:17.240Z,3.50
2023-06-30T00:31:51.764Z,4.20
2023-06-30T00:34:26.945Z,4.10
2023-06-30T00:37:01.260Z,3.30
2023-06-30T00:39:35.649Z,3.80
2023-06-30T00:42:11.997Z,4.30
2023-06-30T00:44:46.469Z,4.20
2023-06-30T00:47:20.872Z,4.20
2023-06-30T00:49:56.038Z,4.70
2023-06-30T00:52:30.906Z,4.20
2023-06-30T00:55:05.914Z,4.20
2023-06-30T00:57:40.170Z,4.00
2023-06-30T01:00:16.831Z,4.00
2023-06-30T01:03:04.395Z,4.70
2023-06-30T01:05:49.977Z,4.50
2023-06-30T01:08:36.806Z,4.40
2023-06-30T01:11:12.885Z,4.40
2023-06-30T01:13:49.487Z,4.20
2023-06-30T01:16:25.939Z,4.40
2023-06-30T01:19:03.761Z,3.80
2023-06-30T01:21:39.217Z,4.50
2023-06-30T01:24:17.767Z,4.70
2023-06-30T01:26:53.087Z,4.00
2023-06-30T01:29:28.457Z,4.50
2023-06-30T01:32:03.338Z,4.50
2023-06-30T01:34:39.131Z,3.90
2023-06-30T01:37:13.557Z,4.00
2023-06-30T01:39:47.844Z,4.40
2023-06-30T01:42:23.388Z,4.50
2023-06-30T01:45:00.371Z,4.50
2023-06-30T01:47:35.898Z,4.80
2023-06-30T01:50:12.856Z,4.80
2023-06-30T01:52:47.238Z,4.80
2023-06-30T01:55:22.110Z,4.20
2023-06-30T01:57:59.534Z,4.80
2023-06-30T02:00:33.894Z,4.40
2023-06-30T02:03:08.245Z,4.60
2023-06-30T02:05:42.851Z,5.40
2023-06-30T02:08:17.540Z,5.40
2023-06-30T02:10:52.920Z,5.40
2023-06-30T02:13:27.214Z,5.70
2023-06-30T02:16:01.630Z,5.30
2023-06-30T02:18:35.901Z,4.80
2023-06-30T02:21:10.306Z,5.10
2023-06-30T02:23:44.468Z,5.10
2023-06-30T02:26:19.063Z,5.40
2023-06-30T02:28:53.399Z,5.00
2023-06-30T02:31:27.973Z,4.80
2023-06-30T02:34:02.157Z,4.90
2023-06-30T02:36:37.180Z,5.50
2023-06-30T02:39:11.372Z,5.10
2023-06-30T02:41:45.543Z,5.10
2023-06-30T02:44:20.619Z,5.30
2023-06-30T02:46:56.002Z,5.20
2023-06-30T02:49:31.601Z,5.70
2023-06-30T02:52:08.179Z,5.70
2023-06-30T02:54:42.463Z,5.80
2023-06-30T02:57:17.157Z,6.40
2023-06-30T02:59:51.864Z,6.20
2023-06-30T03:02:26.627Z,5.60
2023-06-30T03:05:01.720Z,5.90
2023-06-30T03:07:36.942Z,5.90
2023-06-30T03:10:13.929Z,5.60
2023-06-30T03:12:49.338Z,5.50
2023-06-30T03:15:25.446Z,5.60
2023-06-30T03:17:59.949Z,5.00
2023-06-30T03:20:34.314Z,5.80
2023-06-30T03:23:08.658Z,5.70
2023-06-30T03:25:43.552Z,5.60
2023-06-30T03:28:18.249Z,5.70
2023-06-30T03:30:53.321Z,5.90
2023-06-30T03:33:28.208Z,5.40
2023-06-30T03:36:02.404Z,5.80
2023-06-30T03:38:37.421Z,6.00
2023-06-30T03:41:11.843Z,5.80
2023-06-30T03:43:46.119Z,5.20
2023-06-30T03:46:20.481Z,4.60
2023-06-30T03:48:57.915Z,4.70
2023-06-30T03:51:32.302Z,5.00
2023-06-30T03:54:07.638Z,5.20
2023-06-30T03:56:44.042Z,5.30
2023-06-30T03:59:19.007Z,4.70
2023-06-30T04:01:54.011Z,4.90
2023-06-30T04:04:28.630Z,4.50
2023-06-30T04:07:03.589Z,4.40
2023-06-30T04:09:37.874Z,4.80
2023-06-30T04:12:14.583Z,5.00
2023-06-30T04:14:49.720Z,5.80
2023-06-30T04:17:24.034Z,4.90
2023-06-30T04:19:59.538Z,5.80
2023-06-30T04:22:33.927Z,5.70
2023-06-30T04:25:10.149Z,5.60
2023-06-30T04:27:44.488Z,6.00
2023-06-30T04:30:19.935Z,6.50
2023-06-30T04:32:54.107Z,6.20
2023-06-30T04:35:28.721Z,6.90
2023-06-30T04:38:03.964Z,6.40
2023-06-30T04:40:38.254Z,6.00
2023-06-30T04:43:13.894Z,5.80
2023-06-30T04:45:48.742Z,6.20
2023-06-30T04:48:23.057Z,6.20
2023-06-30T04:50:57.300Z,5.90
2023-06-30T04:53:33.284Z,6.00
2023-06-30T04:56:08.151Z,5.90
2023-06-30T04:58:42.976Z,5.50
2023-06-30T05:01:17.206Z,5.90
2023-06-30T05:03:51.590Z,5.30
2023-06-30T05:06:25.828Z,5.60
2023-06-30T05:09:00.142Z,5.50
2023-06-30T05:11:34.449Z,5.20
2023-06-30T05:14:09.258Z,4.90
2023-06-30T05:16:43.661Z,5.20
2023-06-30T05:19:18.192Z,5.10
2023-06-30T05:21:54.686Z,4.90
2023-06-30T05:24:29.133Z,6.20
2023-06-30T05:27:03.355Z,5.10
2023-06-30T05:29:38.002Z,5.30
2023-06-30T05:32:13.734Z,5.10
2023-06-30T05:34:48.962Z,5.50
2023-06-30T05:37:23.684Z,5.10
2023-06-30T05:39:58.129Z,5.90
2023-06-30T05:42:32.482Z,6.10
2023-06-30T05:45:08.208Z,5.20
2023-06-30T05:47:42.629Z,5.80
2023-06-30T05:50:18.437Z,5.30
2023-06-30T05:52:52.696Z,5.10
2023-06-30T05:55:27.204Z,4.50
2023-06-30T05:58:01.452Z,4.90
2023-06-30T06:00:36.842Z,4.20
2023-06-30T06:03:11.711Z,3.80
2023-06-30T06:05:46.872Z,4.30
2023-06-30T06:08:21.456Z,4.00
2023-06-30T06:10:55.988Z,3.80
2023-06-30T06:13:41.486Z,3.90
2023-06-30T06:16:15.807Z,3.90
2023-06-30T06:18:50.173Z,3.80
2023-06-30T06:21:27.658Z,3.80
2023-06-30T06:24:01.952Z,3.40
2023-06-30T06:26:37.258Z,4.20
2023-06-30T06:29:14.208Z,3.70
2023-06-30T06:31:50.124Z,4.10
2023-06-30T06:34:25.389Z,3.70
2023-06-30T06:36:59.691Z,3.60
2023-06-30T06:39:34.578Z,3.30
2023-06-30T06:42:10.137Z,3.60
2023-06-30T06:44:45.845Z,3.40
2023-06-30T06:48:12.193Z,2.80
2023-06-30T06:50:46.649Z,3.00
2023-06-30T06:53:29.450Z,3.00
2023-06-30T06:56:05.147Z,3.10
2023-06-30T06:58:40.468Z,3.00
2023-06-30T07:01:16.451Z,3.10
2023-06-30T07:03:50.792Z,2.90
2023-06-30T07:06:25.934Z,3.10
2023-06-30T07:09:00.356Z,3.20
2023-06-30T07:11:36.430Z,3.20
2023-06-30T07:14:10.710Z,2.80
2023-06-30T07:16:45.014Z,3.40
2023-06-30T07:19:19.386Z,3.60
2023-06-30T07:21:55.383Z,3.00
2023-06-30T07:24:41.829Z,3.40
2023-06-30T07:27:17.220Z,2.70
2023-06-30T07:29:52.029Z,3.00
2023-06-30T07:32:26.700Z,2.60
2023-06-30T07:35:01.052Z,3.20
2023-06-30T07:37:35.365Z,3.00
2023-06-30T07:40:16.536Z,2.30
2023-06-30T07:42:52.194Z,2.70
2023-06-30T07:45:26.600Z,3.00
2023-06-30T07:48:00.906Z,2.60
2023-06-30T07:50:36.356Z,2.70
2023-06-30T07:53:10.877Z,2.70
2023-06-30T07:55:45.552Z,2.90
2023-06-30T07:58:20.102Z,2.50
2023-06-30T08:00:54.401Z,2.60
2023-06-30T08:03:29.038Z,2.70
2023-06-30T08:06:04.038Z,2.80
2023-06-30T08:08:38.882Z,2.80
2023-06-30T08:11:13.255Z,3.00
2023-06-30T08:13:47.564Z,2.70
2023-06-30T08:16:22.009Z,2.50
2023-06-30T08:18:56.415Z,2.30
2023-06-30T08:21:31.053Z,2.40
2023-06-30T08:24:07.719Z,2.20
2023-06-30T08:26:42.504Z,2.30
2023-06-30T08:29:16.905Z,2.20
2023-06-30T08:31:53.859Z,2.50
2023-06-30T08:34:29.032Z,2.20
2023-06-30T08:37:04.042Z,2.40
2023-06-30T08:39:39.634Z,2.30
2023-06-30T08:42:16.626Z,2.40
2023-06-30T08:44:53.897Z,2.20
2023-06-30T08:47:33.732Z,2.40
2023-06-30T08:50:12.039Z,2.60
2023-06-30T08:52:46.859Z,2.30
2023-06-30T08:55:22.138Z,2.90
2023-06-30T08:58:00.286Z,2.60
2023-06-30T09:00:39.369Z,2.10
2023-06-30T09:03:14.108Z,1.90
2023-06-30T09:05:50.616Z,2.40
2023-06-30T09:08:31.305Z,1.60
2023-06-30T09:11:09.188Z,1.50
2023-06-30T09:13:47.772Z,1.50
2023-06-30T09:16:22.793Z,1.80
2023-06-30T09:18:57.368Z,1.60
2023-06-30T09:21:31.773Z,1.60
2023-06-30T09:24:07.357Z,1.80
2023-06-30T09:26:42.007Z,1.50
2023-06-30T09:29:16.412Z,1.70
2023-06-30T09:43:17.644Z,1.40
2023-06-30T09:45:58.704Z,1.60
2023-06-30T09:48:39.990Z,1.80
2023-06-30T09:51:20.655Z,1.70
2023-06-30T09:53:58.368Z,1.70
2023-06-30T09:56:33.731Z,1.90
2023-06-30T09:59:10.521Z,2.20
2023-06-30T10:01:45.710Z,1.80
2023-06-30T10:04:20.486Z,1.50
2023-06-30T10:06:57.525Z,1.70
2023-06-30T10:09:34.291Z,1.80
2023-06-30T10:12:12.204Z,1.90
2023-06-30T10:14:49.823Z,2.00
2023-06-30T10:17:25.077Z,1.90
2023-06-30T10:20:04.586Z,2.20
2023-06-30T10:22:40.777Z,2.00
2023-06-30T10:25:19.579Z,2.20
2023-06-30T10:27:54.328Z,1.90
2023-06-30T10:30:30.285Z,2.20
2023-06-30T10:33:05.129Z,1.90
2023-06-30T10:35:43.149Z,1.80
2023-06-30T10:38:20.255Z,1.90
2023-06-30T10:41:17.503Z,1.90
2023-06-30T10:44:14.514Z,2.00
2023-06-30T10:46:58.555Z,1.80
2023-06-30T10:49:37.690Z,1.70
2023-06-30T10:52:33.537Z,1.80
2023-06-30T10:55:20.531Z,2.10
2023-06-30T10:58:00.045Z,1.70
2023-06-30T11:00:38.448Z,1.50
2023-06-30T11:03:13.383Z,2.30
2023-06-30T11:05:48.391Z,1.70
2023-06-30T11:08:29.089Z,2.00
2023-06-30T11:11:10.927Z,1.70
2023-06-30T11:13:46.614Z,2.10
2023-06-30T11:16:20.936Z,1.80
2023-06-30T11:19:04.191Z,1.70
2023-06-30T11:21:44.831Z,1.80
2023-06-30T11:24:22.435Z,2.00
2023-06-30T11:26:58.641Z,1.80
2023-06-30T11:29:37.241Z,1.80
2023-06-30T11:32:14.369Z,2.30
2023-06-30T11:34:49.219Z,1.80
2023-06-30T11:37:25.228Z,2.10
2023-06-30T11:40:04.045Z,1.70
2023-06-30T11:42:45.929Z,1.80
2023-06-30T11:45:22.430Z,1.80
2023-06-30T11:47:58.611Z,2.00
2023-06-30T11:50:35.126Z,2.00
2023-06-30T11:53:11.240Z,1.60
2023-06-30T11:55:51.541Z,1.80
2023-06-30T11:58:26.356Z,1.60
2023-06-30T12:01:04.917Z,1.60
2023-06-30T12:03:39.438Z,1.80
2023-06-30T12:06:19.503Z,1.80
2023-06-30T12:08:54.351Z,2.00
2023-06-30T12:11:30.657Z,1.70
2023-06-30T12:14:12.023Z,1.60
2023-06-30T12:16:49.457Z,1.80
2023-06-30T12:19:29.687Z,1.60
2023-06-30T12:22:05.369Z,1.80
2023-06-30T12:24:43.335Z,1.60
2023-06-30T12:27:18.010Z,1.70
2023-06-30T12:29:54.632Z,2.30
2023-06-30T12:32:32.322Z,2.00
2023-06-30T12:35:08.694Z,1.80
2023-06-30T12:37:45.814Z,2.00
2023-06-30T12:40:21.001Z,2.00
2023-06-30T12:42:58.968Z,2.20
2023-06-30T12:45:36.790Z,2.40
2023-06-30T12:48:18.874Z,2.20
2023-06-30T12:50:57.663Z,1.90
2023-06-30T12:53:36.634Z,2.10
2023-06-30T12:56:14.519Z,2.00
2023-06-30T12:58:56.125Z,2.30
2023-06-30T13:01:35.192Z,2.00
2023-06-30T13:04:11.502Z,2.20
2023-06-30T13:06:48.071Z,1.90
2023-06-30T13:09:26.426Z,1.70
2023-06-30T13:12:01.039Z,2.20
2023-06-30T13:14:35.651Z,2.40
2023-06-30T13:17:12.222Z,1.90
2023-06-30T13:19:46.902Z,2.20
2023-06-30T13:22:22.159Z,2.00
2023-06-30T13:25:05.629Z,2.20
2023-06-30T13:27:46.925Z,1.90
2023-06-30T13:30:28.024Z,1.80
2023-06-30T13:33:03.196Z,1.80
2023-06-30T13:35:38.110Z,2.00
2023-06-30T13:38:14.167Z,2.30
2023-06-30T13:40:48.922Z,1.80
2023-06-30T13:43:26.173Z,2.20
2023-06-30T13:46:07.119Z,2.20
2023-06-30T13:48:45.632Z,2.30
2023-06-30T13:51:22.378Z,2.40
2023-06-30T13:53:57.229Z,2.20
2023-06-30T13:56:31.943Z,2.20
2023-06-30T13:59:06.754Z,2.00
2023-06-30T14:01:42.465Z,2.50
2023-06-30T14:04:17.256Z,2.30
2023-06-30T14:06:52.202Z,2.50
2023-06-30T14:09:27.483Z,2.60
2023-06-30T14:12:02.350Z,2.40
2023-06-30T14:14:36.986Z,2.50
2023-06-30T14:17:12.361Z,2.70
2023-06-30T14:19:47.136Z,3.10
2023-06-30T14:22:22.607Z,3.30
2023-06-30T14:25:00.350Z,2.60
2023-06-30T14:27:35.103Z,2.60
2023-06-30T14:30:12.842Z,2.90
2023-06-30T14:32:47.675Z,2.30
2023-06-30T14:35:22.569Z,2.50
2023-06-30T14:37:57.187Z,2.80
2023-06-30T14:40:31.987Z,2.30
2023-06-30T14:43:07.710Z,3.30
2023-06-30T14:45:42.471Z,2.70
2023-06-30T14:48:17.610Z,2.60
2023-06-30T14:50:52.538Z,2.80
2023-06-30T14:53:27.924Z,2.70
2023-06-30T14:56:11.739Z,3.00
2023-06-30T14:58:51.282Z,3.20
2023-06-30T15:01:32.682Z,3.10
2023-06-30T15:04:07.814Z,2.80
2023-06-30T15:06:42.799Z,3.00
2023-06-30T15:09:17.479Z,2.70
2023-06-30T15:11:52.468Z,2.70
2023-06-30T15:14:27.795Z,2.80
2023-06-30T15:17:02.312Z,2.80
2023-06-30T15:19:36.997Z,2.50
2023-06-30T15:22:11.879Z,2.80
2023-06-30T15:24:46.500Z,2.90
2023-06-30T15:27:21.457Z,2.80
2023-06-30T15:29:56.127Z,2.60
2023-06-30T15:32:31.091Z,3.30
2023-06-30T15:35:07.195Z,3.30
2023-06-30T15:37:41.746Z,3.10
2023-06-30T15:40:17.503Z,3.40
2023-06-30T15:42:52.192Z,3.40
2023-06-30T15:45:26.779Z,3.20
2023-06-30T15:48:01.364Z,3.00
2023-06-30T15:50:37.089Z,3.20
2023-06-30T15:53:12.885Z,3.40
2023-06-30T15:55:48.103Z,3.60
2023-06-30T15:58:23.354Z,3.60
2023-06-30T16:00:58.212Z,3.80
2023-06-30T16:03:32.968Z,3.50
2023-06-30T16:06:08.021Z,3.70
2023-06-30T16:09:37.026Z,3.80
2023-06-30T16:12:12.556Z,3.50
2023-06-30T16:14:47.194Z,4.00
2023-06-30T16:17:21.709Z,3.40
2023-06-30T16:19:56.243Z,3.40
2023-06-30T16:22:31.000Z,3.60
2023-06-30T16:25:05.761Z,3.80
2023-06-30T16:27:41.215Z,3.80
2023-06-30T16:30:33.509Z,3.80
2023-06-30T16:33:08.549Z,3.50
2023-06-30T16:35:43.049Z,3.70
2023-06-30T16:38:17.700Z,3.50
2023-06-30T16:40:52.565Z,4.00
2023-06-30T16:43:27.230Z,3.90
2023-06-30T16:46:02.424Z,4.30
2023-06-30T16:48:37.507Z,4.50
2023-06-30T16:51:12.644Z,4.10
2023-06-30T16:53:47.344Z,4.40
2023-06-30T16:56:21.860Z,4.20
2023-06-30T16:58:56.341Z,4.30
2023-06-30T17:01:31.518Z,4.50
2023-06-30T17:04:06.984Z,4.10
2023-06-30T17:06:42.157Z,4.00
2023-06-30T17:09:17.894Z,3.90
2023-06-30T17:11:52.990Z,4.50
2023-06-30T17:14:27.802Z,4.30
2023-06-30T17:17:02.876Z,4.80
2023-06-30T17:22:13.399Z,3.80
2023-06-30T17:24:47.897Z,3.80
2023-06-30T17:27:29.203Z,4.20
2023-06-30T17:30:09.532Z,4.20
2023-06-30T17:32:47.469Z,4.50
2023-06-30T17:35:30.062Z,4.90
2023-06-30T17:38:08.854Z,4.70
2023-06-30T17:40:46.708Z,4.30
2023-06-30T17:43:24.924Z,4.10
2023-06-30T17:46:04.945Z,4.30
2023-06-30T17:48:49.340Z,5.20
2023-06-30T17:51:31.339Z,5.50
2023-06-30T17:54:13.614Z,5.40
2023-06-30T17:56:55.548Z,4.90
2023-06-30T17:59:46.513Z,4.50
2023-06-30T18:02:29.011Z,4.20
2023-06-30T18:05:08.802Z,4.70
2023-06-30T18:07:52.560Z,5.00
2023-06-30T18:10:28.884Z,5.00
2023-06-30T18:13:11.171Z,4.80
2023-06-30T18:32:48.966Z,6.80
2023-06-30T18:35:19.294Z,7.50
2023-06-30T18:37:50.732Z,6.80
2023-06-30T18:40:21.032Z,6.80
2023-06-30T18:42:51.443Z,6.20
2023-06-30T18:45:22.059Z,6.70
2023-06-30T18:47:52.321Z,6.80
2023-06-30T18:50:23.886Z,7.50
2023-06-30T18:52:54.182Z,6.90
2023-06-30T18:55:24.544Z,7.50
2023-06-30T18:57:54.921Z,6.90
2023-06-30T19:00:25.281Z,6.60
2023-06-30T19:02:55.790Z,6.60
2023-06-30T19:05:26.288Z,6.60
2023-06-30T19:07:56.638Z,7.30
2023-06-30T19:10:27.758Z,7.10
2023-06-30T19:12:58.065Z,6.10
2023-06-30T19:15:28.333Z,6.30
2023-06-30T19:17:58.650Z,6.10
2023-06-30T19:20:29.045Z,5.80
2023-06-30T19:22:59.300Z,6.50
2023-06-30T19:25:29.704Z,6.10
2023-06-30T19:28:00.181Z,6.40
2023-06-30T19:30:30.577Z,7.40
2023-06-30T19:33:01.047Z,6.70
2023-06-30T19:35:31.641Z,6.80
2023-06-30T19:38:02.040Z,6.50
2023-06-30T19:40:32.395Z,5.90
2023-06-30T19:43:02.687Z,6.80
2023-06-30T19:45:33.067Z,6.40
2023-06-30T19:48:03.543Z,6.80
2023-06-30T19:50:34.237Z,6.90
2023-06-30T19:53:04.874Z,6.30
2023-06-30T19:55:36.243Z,6.20
2023-06-30T19:58:10.010Z,6.20
2023-06-30T20:00:41.450Z,6.80
2023-06-30T20:03:12.127Z,6.70
2023-06-30T20:05:42.713Z,7.20
2023-06-30T20:08:12.997Z,7.30
2023-06-30T20:10:43.802Z,6.40
2023-06-30T20:13:15.246Z,6.80
2023-06-30T20:15:47.105Z,6.70
2023-06-30T20:18:18.432Z,6.60
2023-06-30T20:20:49.866Z,6.80
2023-06-30T20:23:20.712Z,7.40
2023-06-30T20:25:51.825Z,7.20
2023-06-30T20:28:23.489Z,6.90
2023-06-30T20:30:54.751Z,6.80
2023-06-30T20:33:28.208Z,6.60
2023-06-30T20:35:59.598Z,7.20
2023-06-30T20:38:31.049Z,8.00
2023-06-30T20:41:03.189Z,8.40
2023-06-30T20:43:34.664Z,7.00
2023-06-30T20:46:05.488Z,7.00
2023-06-30T20:48:36.042Z,7.50
2023-06-30T20:51:06.788Z,6.50
2023-06-30T20:53:39.849Z,7.20
2023-06-30T20:56:11.570Z,7.70
2023-06-30T20:58:44.070Z,7.80
2023-06-30T21:01:15.393Z,7.80
2023-06-30T21:03:46.482Z,7.20
2023-06-30T21:06:17.890Z,7.20
2023-06-30T21:08:51.018Z,7.70
2023-06-30T21:11:22.675Z,7.40
2023-06-30T21:13:54.739Z,7.90
2023-06-30T21:16:26.499Z,7.90
2023-06-30T21:18:58.058Z,8.60
2023-06-30T21:21:29.673Z,8.10
2023-06-30T21:24:00.568Z,7.70
2023-06-30T21:26:32.823Z,8.30
2023-06-30T21:29:03.183Z,8.10
2023-06-30T21:31:34.212Z,8.80
2023-06-30T21:34:05.543Z,9.00
2023-06-30T21:36:39.683Z,9.00
2023-06-30T21:39:10.904Z,8.80
2023-06-30T21:41:41.344Z,8.00
2023-06-30T21:44:11.951Z,8.20
2023-06-30T21:46:42.824Z,8.70
2023-06-30T21:49:13.271Z,8.40
2023-06-30T21:51:43.804Z,8.30
2023-06-30T21:54:16.605Z,8.60
2023-06-30T21:56:56.280Z,7.60
2023-06-30T21:59:26.709Z,7.40
2023-06-30T22:01:57.702Z,7.50
2023-06-30T22:04:28.693Z,7.70
2023-06-30T22:07:03.906Z,7.50
2023-06-30T22:09:34.388Z,8.20
2023-06-30T22:12:06.590Z,8.30
2023-06-30T22:14:37.918Z,8.00
2023-06-30T22:17:08.676Z,7.40
2023-06-30T22:19:39.014Z,8.00
2023-06-30T22:22:09.460Z,7.80
2023-06-30T22:24:40.349Z,7.80
2023-06-30T22:27:10.685Z,7.90
2023-06-30T22:29:41.059Z,8.70
2023-06-30T22:32:13.931Z,8.50
2023-06-30T22:34:44.227Z,8.10
2023-06-30T22:37:14.967Z,8.90
2023-06-30T22:39:45.219Z,8.70
2023-06-30T22:42:15.780Z,8.20
2023-06-30T22:44:46.113Z,8.70
2023-06-30T22:47:17.130Z,8.80
2023-06-30T22:49:47.535Z,9.00
2023-06-30T22:52:17.786Z,9.10
2023-06-30T22:54:47.991Z,9.00
2023-06-30T22:57:18.551Z,8.60
2023-06-30T22:59:51.738Z,8.40
2023-06-30T23:02:22.096Z,9.90
2023-06-30T23:04:52.435Z,9.30
2023-06-30T23:07:22.838Z,9.10
2023-06-30T23:09:53.085Z,8.70
2023-06-30T23:12:23.417Z,8.10
2023-06-30T23:14:53.877Z,8.50
2023-06-30T23:17:27.213Z,8.50
2023-06-30T23:19:58.305Z,9.00
2023-06-30T23:22:30.517Z,9.30
2023-06-30T23:25:01.797Z,8.60
2023-06-30T23:27:34.811Z,8.80
2023-06-30T23:30:06.707Z,8.60
2023-06-30T23:32:46.422Z,8.60
2023-06-30T23:35:16.888Z,8.60
2023-06-30T23:37:47.326Z,9.00
2023-06-30T23:40:17.941Z,10.10
2023-06-30T23:42:48.733Z,9.50
2023-06-30T23:45:20.073Z,8.20
2023-06-30T23:47:50.310Z,8.50
2023-06-30T23:50:20.575Z,9.30
2023-06-30T23:52:50.809Z,9.60
2023-06-30T23:55:21.466Z,10.30
2023-06-30T23:57:51.866Z,9.60
